Time;durP1;ratioP1;P1;durP2;ratioP2;P2;SDS_P1;SDS_P2;PMS_P1;PMS_P2;Temp;Humidity;BMP_temperature;BMP_pressure;BME280_temperature;BME280_humidity;BME280_pressure;Samples;Min_cycle;Max_cycle;Signal;HPM_P1;HPM_P2
2022/10/28 00:02:12;;;;;;;4.97;3.22;;;17.30;99.90;;;;;;5044902;28;20026;-91
2022/10/28 00:04:38;;;;;;;5.00;3.45;;;17.30;99.90;;;;;;5061953;28;20112;-90
2022/10/28 00:07:04;;;;;;;6.53;4.15;;;17.30;99.90;;;;;;5045501;28;20033;-90
2022/10/28 00:09:30;;;;;;;8.52;4.90;;;17.30;99.90;;;;;;5028987;28;20033;-90
2022/10/28 00:11:56;;;;;;;5.75;3.08;;;17.30;99.90;;;;;;5046793;28;20025;-90
2022/10/28 00:14:22;;;;;;;5.13;3.67;;;17.30;99.90;;;;;;5037636;28;20040;-91
2022/10/28 00:16:48;;;;;;;5.35;3.63;;;17.30;99.90;;;;;;5065322;28;20044;-90
2022/10/28 00:19:13;;;;;;;4.95;4.45;;;17.30;99.90;;;;;;5066619;28;20013;-90
2022/10/28 00:21:41;;;;;;;3.35;2.78;;;17.30;99.90;;;;;;5065929;28;20033;-90
2022/10/28 00:24:09;;;;;;;5.53;3.00;;;17.30;99.90;;;;;;5066213;28;20040;-91
2022/10/28 00:26:36;;;;;;;6.05;3.92;;;17.30;99.90;;;;;;5065388;28;20025;-90
2022/10/28 00:29:11;;;;;;;4.45;3.63;;;17.20;99.90;;;;;;5065924;28;20056;-90
2022/10/28 00:31:37;;;;;;;4.03;3.70;;;17.20;99.90;;;;;;5065114;28;20097;-90
2022/10/28 00:34:05;;;;;;;6.85;3.33;;;17.30;99.90;;;;;;5048585;28;20376;-90
2022/10/28 00:36:34;;;;;;;5.35;3.97;;;17.20;99.90;;;;;;5049008;28;20051;-90
2022/10/28 00:39:02;;;;;;;4.18;3.65;;;17.30;99.90;;;;;;5065611;28;20018;-90
2022/10/28 00:41:37;;;;;;;4.65;4.03;;;17.20;99.90;;;;;;5048903;28;20491;-90
2022/10/28 00:44:41;;;;;;;5.00;3.63;;;17.20;99.90;;;;;;5071930;28;20063;-91
2022/10/28 00:47:25;;;;;;;5.30;3.28;;;17.20;99.90;;;;;;5052147;28;20025;-90
2022/10/28 00:49:54;;;;;;;11.23;3.28;;;17.30;99.90;;;;;;5052285;28;20029;-91
2022/10/28 00:52:26;;;;;;;6.45;3.30;;;17.20;99.90;;;;;;5069048;28;20138;-91
2022/10/28 00:54:54;;;;;;;3.05;2.85;;;17.20;99.90;;;;;;5069089;28;20037;-91
2022/10/28 00:57:26;;;;;;;4.45;3.38;;;17.20;99.90;;;;;;5068874;28;20024;-90
2022/10/28 00:59:53;;;;;;;4.65;3.30;;;17.20;99.90;;;;;;5068811;28;20610;-91
2022/10/28 01:02:19;;;;;;;4.70;3.53;;;17.20;99.90;;;;;;5069613;28;20031;-90
2022/10/28 01:04:46;;;;;;;6.13;2.90;;;17.20;99.90;;;;;;5068482;28;20025;-91
2022/10/28 01:07:14;;;;;;;5.40;3.10;;;17.30;99.90;;;;;;5051602;28;20094;-90
2022/10/28 01:09:40;;;;;;;4.47;3.08;;;17.20;99.90;;;;;;5051998;28;20109;-90
2022/10/28 01:12:34;;;;;;;3.88;3.58;;;17.20;99.90;;;;;;5032928;28;20021;-90
2022/10/28 01:15:12;;;;;;;7.35;3.70;;;17.20;99.90;;;;;;5048481;28;20049;-90
2022/10/28 01:18:02;;;;;;;7.93;3.97;;;17.20;99.90;;;;;;5049802;28;20030;-90
2022/10/28 01:20:47;;;;;;;5.97;3.75;;;17.20;99.90;;;;;;5048570;28;20040;-90
2022/10/28 01:23:41;;;;;;;7.22;4.15;;;17.20;99.90;;;;;;5048557;28;20053;-90
2022/10/28 01:26:37;;;;;;;5.82;3.45;;;17.20;99.90;;;;;;5045760;28;20041;-90
2022/10/28 01:29:27;;;;;;;6.40;3.30;;;17.20;99.90;;;;;;5048318;28;20033;-90
2022/10/28 01:32:01;;;;;;;12.50;3.30;;;17.10;99.90;;;;;;5048551;28;20036;-90
2022/10/28 01:34:37;;;;;;;5.10;3.30;;;17.10;99.90;;;;;;5065458;28;20057;-90
2022/10/28 01:37:09;;;;;;;6.25;3.13;;;17.10;99.90;;;;;;5064952;28;20040;-90
2022/10/28 01:40:03;;;;;;;3.55;3.00;;;17.10;99.90;;;;;;5054437;28;20029;-91
2022/10/28 01:42:50;;;;;;;5.75;3.10;;;17.10;99.90;;;;;;5068106;28;20090;-90
2022/10/28 01:45:35;;;;;;;4.68;2.78;;;17.10;99.90;;;;;;5068169;28;20029;-91
2022/10/28 01:48:07;;;;;;;4.68;3.72;;;17.10;99.90;;;;;;5051588;28;20029;-90
2022/10/28 01:50:47;;;;;;;5.65;3.25;;;17.00;99.90;;;;;;5069304;28;20033;-90
2022/10/28 01:53:17;;;;;;;5.82;3.88;;;17.00;99.90;;;;;;5068820;28;20040;-90
2022/10/28 01:55:48;;;;;;;5.18;3.40;;;17.00;99.90;;;;;;5050381;28;20025;-91
2022/10/28 01:58:22;;;;;;;4.72;3.55;;;17.00;99.90;;;;;;5050837;28;20036;-89
2022/10/28 02:00:49;;;;;;;5.75;3.45;;;17.00;99.90;;;;;;5084262;28;20052;-91
2022/10/28 02:03:16;;;;;;;12.30;5.07;;;17.00;99.90;;;;;;5067750;28;20086;-90
2022/10/28 02:05:56;;;;;;;5.47;3.50;;;17.00;99.90;;;;;;5051099;28;20053;-90
2022/10/28 02:08:40;;;;;;;6.85;3.13;;;17.00;99.90;;;;;;5068745;28;20055;-90
2022/10/28 02:11:20;;;;;;;6.50;3.63;;;17.00;99.90;;;;;;5067697;28;20021;-90
2022/10/28 02:14:25;;;;;;;7.70;3.05;;;17.00;99.90;;;;;;5073086;28;20036;-91
2022/10/28 02:17:07;;;;;;;3.30;2.65;;;16.90;99.90;;;;;;5067822;28;20055;-90
2022/10/28 02:19:47;;;;;;;8.70;3.30;;;16.90;99.90;;;;;;5068408;28;20119;-91
2022/10/28 02:22:13;;;;;;;;;;;17.00;99.90;;;;;;5067779;28;20021;-90
2022/10/28 02:25:13;;;;;;;6.40;3.38;;;16.90;99.90;;;;;;5068585;28;20301;-90
2022/10/28 02:27:45;;;;;;;7.07;3.50;;;16.90;99.90;;;;;;5066705;28;20032;-90
2022/10/28 02:30:17;;;;;;;6.80;4.03;;;16.90;99.90;;;;;;5067057;28;20043;-90
2022/10/28 02:32:49;;;;;;;9.82;4.78;;;16.90;99.90;;;;;;5050381;28;20025;-91
2022/10/28 02:35:42;;;;;;;6.97;4.60;;;16.90;99.90;;;;;;5050344;28;20021;-90
2022/10/28 02:38:16;;;;;;;5.43;3.88;;;16.90;99.90;;;;;;5049497;28;20067;-90
2022/10/28 02:40:46;;;;;;;9.70;4.05;;;16.90;99.90;;;;;;5067777;28;20033;-91
2022/10/28 02:43:14;;;;;;;8.85;3.97;;;16.90;99.90;;;;;;5066796;28;20088;-90
2022/10/28 02:45:43;;;;;;;5.53;3.60;;;16.90;99.90;;;;;;5066529;28;20032;-90
2022/10/28 02:48:32;;;;;;;5.82;2.70;;;16.80;99.90;;;;;;5066581;28;20060;-91
2022/10/28 02:51:17;;;;;;;5.60;3.13;;;16.80;99.90;;;;;;5050085;28;20029;-90
2022/10/28 02:54:01;;;;;;;4.43;3.90;;;16.90;99.90;;;;;;5067727;28;20047;-91
2022/10/28 02:56:30;;;;;;;5.90;3.30;;;16.80;99.90;;;;;;5066564;28;20025;-91
2022/10/28 02:58:56;;;;;;;8.50;3.65;;;16.80;99.90;;;;;;5066377;28;20088;-91
2022/10/28 03:01:22;;;;;;;4.28;3.88;;;16.80;99.90;;;;;;5067612;28;20036;-90
2022/10/28 03:03:47;;;;;;;4.93;3.78;;;16.80;99.90;;;;;;5049741;28;20059;-91
2022/10/28 03:06:13;;;;;;;7.50;4.30;;;16.80;99.90;;;;;;5066388;28;20459;-91
2022/10/28 03:08:39;;;;;;;6.38;3.08;;;16.80;99.90;;;;;;5067426;28;20036;-90
2022/10/28 03:11:05;;;;;;;6.95;4.20;;;16.80;99.90;;;;;;5067122;28;20040;-91
2022/10/28 03:13:30;;;;;;;4.00;3.67;;;16.80;99.90;;;;;;5049421;28;20033;-90
2022/10/28 03:15:56;;;;;;;5.18;2.85;;;16.80;99.90;;;;;;5066245;28;20113;-90
2022/10/28 03:18:22;;;;;;;5.63;3.65;;;16.80;99.90;;;;;;5067221;28;20031;-90
2022/10/28 03:20:48;;;;;;;4.43;3.42;;;16.80;99.90;;;;;;5049240;28;20035;-90
2022/10/28 03:23:14;;;;;;;8.82;3.60;;;;;;;;;;5065922;28;20029;-91
2022/10/28 03:25:40;;;;;;;5.63;4.38;;;16.70;99.90;;;;;;5049352;28;20086;-90
2022/10/28 03:28:06;;;;;;;7.35;3.53;;;16.70;99.90;;;;;;5065605;28;20040;-91
2022/10/28 03:30:32;;;;;;;3.33;2.50;;;16.70;99.90;;;;;;5066006;28;20518;-90
2022/10/28 03:32:57;;;;;;;10.85;4.32;;;16.70;99.90;;;;;;5065896;28;20048;-90
2022/10/28 03:35:23;;;;;;;5.32;3.20;;;16.70;99.90;;;;;;5065640;28;20043;-90
2022/10/28 03:37:49;;;;;;;9.65;4.50;;;16.70;99.90;;;;;;5067051;28;20029;-91
2022/10/28 03:40:15;;;;;;;10.00;4.18;;;16.70;99.90;;;;;;5049259;28;20039;-90
2022/10/28 03:42:41;;;;;;;9.07;3.85;;;16.70;99.90;;;;;;5066768;28;20036;-90
2022/10/28 03:45:08;;;;;;;12.13;4.38;;;16.60;99.90;;;;;;5065632;28;20140;-90
2022/10/28 03:47:35;;;;;;;6.03;4.03;;;16.60;99.90;;;;;;5065552;28;20025;-90
2022/10/28 03:50:01;;;;;;;4.70;4.20;;;16.60;99.90;;;;;;5065793;28;20033;-90
2022/10/28 03:52:27;;;;;;;11.30;4.18;;;16.70;99.90;;;;;;5066981;28;20036;-92
2022/10/28 03:54:52;;;;;;;7.05;4.00;;;16.60;99.90;;;;;;5037648;28;20036;-90
2022/10/28 03:57:18;;;;;;;5.20;4.00;;;16.60;99.90;;;;;;5048724;28;20104;-90
2022/10/28 03:59:44;;;;;;;9.75;3.05;;;16.60;99.90;;;;;;5065697;28;20052;-91
2022/10/28 04:02:10;;;;;;;6.13;3.58;;;16.60;99.90;;;;;;5064631;28;20021;-90
2022/10/28 04:04:36;;;;;;;9.82;5.05;;;;;;;;;;5065446;28;20033;-89
2022/10/28 04:07:02;;;;;;;3.63;2.55;;;16.60;99.90;;;;;;5066604;28;20033;-90
2022/10/28 04:09:28;;;;;;;13.73;4.28;;;16.60;99.90;;;;;;5048494;28;20020;-89
2022/10/28 04:11:54;;;;;;;5.38;3.58;;;;;;;;;;5015311;28;20087;-90
2022/10/28 04:14:20;;;;;;;11.20;5.35;;;;;;;;;;5064933;28;20032;-90
2022/10/28 04:16:46;;;;;;;5.30;4.25;;;;;;;;;;5064541;28;20021;-90
2022/10/28 04:19:13;;;;;;;9.25;4.38;;;;;;;;;;5066026;28;20029;-90
2022/10/28 04:21:38;;;;;;;5.28;4.00;;;16.50;99.90;;;;;;5065004;28;20052;-90
2022/10/28 04:24:05;;;;;;;5.65;3.92;;;16.50;99.90;;;;;;5065108;28;20357;-90
2022/10/28 04:26:31;;;;;;;7.85;4.03;;;;;;;;;;5068205;28;20060;-90
2022/10/28 04:28:57;;;;;;;6.25;3.97;;;;;;;;;;5072228;28;20067;-89
2022/10/28 04:31:25;;;;;;;6.35;3.95;;;16.50;99.90;;;;;;5052114;28;20170;-90
2022/10/28 04:33:52;;;;;;;13.38;4.57;;;;;;;;;;5048928;28;20029;-90
2022/10/28 04:36:18;;;;;;;5.13;2.80;;;;;;;;;;5075061;28;20064;-90
2022/10/28 04:38:44;;;;;;;7.32;4.07;;;;;;;;;;5065824;28;20045;-90
2022/10/28 04:41:17;;;;;;;3.97;3.58;;;16.40;99.90;;;;;;5061415;28;20021;-91
2022/10/28 04:43:46;;;;;;;4.03;3.72;;;;;;;;;;5056391;28;20029;-90
2022/10/28 04:46:13;;;;;;;6.85;4.50;;;;;;;;;;5071135;28;20025;-90
2022/10/28 04:48:39;;;;;;;8.98;4.35;;;;;;;;;;5053282;28;20033;-90
2022/10/28 04:51:06;;;;;;;13.38;5.38;;;;;;;;;;5045403;28;20043;-90
2022/10/28 04:53:32;;;;;;;5.97;3.72;;;;;;;;;;5055638;28;20033;-90
2022/10/28 04:55:58;;;;;;;6.32;4.85;;;;;;;;;;5043092;28;20503;-88
2022/10/28 04:58:25;;;;;;;5.38;3.83;;;16.30;99.90;;;;;;5049122;28;20096;-88
2022/10/28 05:00:51;;;;;;;5.97;4.60;;;16.30;99.90;;;;;;5055769;28;20025;-88
2022/10/28 05:03:17;;;;;;;11.73;5.38;;;16.30;99.90;;;;;;5049827;28;20044;-89
2022/10/28 05:05:43;;;;;;;9.95;3.97;;;;;;;;;;5047251;28;20044;-88
2022/10/28 05:08:09;;;;;;;10.73;4.15;;;16.30;99.90;;;;;;5063910;28;20043;-88
2022/10/28 05:10:35;;;;;;;5.30;3.58;;;16.30;99.90;;;;;;5030859;28;20025;-88
2022/10/28 05:13:03;;;;;;;6.22;2.92;;;16.30;99.90;;;;;;5080377;28;20407;-88
2022/10/28 05:15:30;;;;;;;5.95;3.25;;;16.30;99.90;;;;;;5063808;28;20526;-88
2022/10/28 05:17:56;;;;;;;10.63;4.15;;;16.30;99.90;;;;;;5031230;28;20055;-89
2022/10/28 05:20:22;;;;;;;13.50;4.07;;;16.30;99.90;;;;;;5047429;28;20033;-89
2022/10/28 05:22:51;;;;;;;9.65;4.35;;;16.20;99.90;;;;;;5047252;28;20365;-90
2022/10/28 05:25:17;;;;;;;5.07;4.28;;;;;;;;;;5063958;28;20368;-90
2022/10/28 05:27:44;;;;;;;7.22;4.30;;;;;;;;;;5063792;28;20058;-89
2022/10/28 05:30:10;;;;;;;6.07;4.45;;;16.20;99.90;;;;;;5063976;28;20037;-90
2022/10/28 05:32:36;;;;;;;8.18;4.18;;;16.20;99.90;;;;;;5034621;28;20029;-90
2022/10/28 05:35:02;;;;;;;7.30;4.28;;;16.20;99.90;;;;;;5067260;28;20039;-90
2022/10/28 05:37:28;;;;;;;16.73;6.38;;;16.20;99.90;;;;;;5067543;28;20029;-89
2022/10/28 05:39:54;;;;;;;7.78;4.75;;;16.20;99.90;;;;;;5067551;28;20032;-89
2022/10/28 05:42:20;;;;;;;12.88;6.22;;;16.20;99.90;;;;;;5068752;28;20025;-89
2022/10/28 05:44:46;;;;;;;13.15;6.03;;;16.20;99.90;;;;;;5067311;28;20032;-90
2022/10/28 05:47:11;;;;;;;17.90;4.93;;;16.20;99.90;;;;;;5051238;28;20025;-89
2022/10/28 05:49:37;;;;;;;11.80;5.10;;;16.10;99.90;;;;;;5066205;28;20045;-89
2022/10/28 05:52:03;;;;;;;9.90;5.43;;;16.10;99.90;;;;;;5047504;28;20041;-89
2022/10/28 05:54:29;;;;;;;9.13;5.53;;;16.10;99.90;;;;;;5047315;28;20395;-90
2022/10/28 05:56:55;;;;;;;6.88;4.38;;;16.10;99.90;;;;;;5048354;28;20030;-90
2022/10/28 05:59:20;;;;;;;7.68;5.32;;;16.10;99.90;;;;;;5048342;28;20021;-89
2022/10/28 06:01:47;;;;;;;9.77;6.07;;;16.10;99.90;;;;;;5030739;28;20479;-90
2022/10/28 06:04:13;;;;;;;9.60;5.65;;;16.10;99.90;;;;;;5082470;28;20056;-89
2022/10/28 06:06:38;;;;;;;13.65;5.75;;;16.00;99.90;;;;;;5087205;28;20493;-90
2022/10/28 06:09:04;;;;;;;8.30;5.88;;;16.10;99.90;;;;;;5087100;28;20507;-90
2022/10/28 06:11:30;;;;;;;7.10;3.72;;;16.00;99.90;;;;;;5086912;28;20086;-90
2022/10/28 06:13:56;;;;;;;13.43;5.32;;;;;;;;;;5087026;28;20033;-89
2022/10/28 06:16:22;;;;;;;8.25;4.25;;;16.00;99.90;;;;;;5070421;28;20039;-89
2022/10/28 06:18:48;;;;;;;11.88;4.28;;;16.00;99.90;;;;;;5050875;28;20014;-90
2022/10/28 06:21:13;;;;;;;10.43;5.93;;;16.00;99.90;;;;;;5068658;28;20036;-89
2022/10/28 06:23:39;;;;;;;10.00;4.57;;;16.00;99.90;;;;;;5053614;28;20092;-89
2022/10/28 06:26:05;;;;;;;9.13;5.70;;;16.00;99.90;;;;;;5086750;28;20029;-90
2022/10/28 06:28:31;;;;;;;5.95;4.28;;;;;;;;;;5086841;28;20021;-90
2022/10/28 06:31:05;;;;;;;9.68;4.63;;;16.00;99.90;;;;;;5086502;28;20040;-89
2022/10/28 06:33:32;;;;;;;9.63;5.07;;;16.00;99.90;;;;;;5086353;28;20025;-89
2022/10/28 06:35:59;;;;;;;14.43;6.68;;;16.00;99.90;;;;;;5067647;28;20055;-89
2022/10/28 06:38:26;;;;;;;11.18;6.35;;;15.90;99.90;;;;;;5087280;28;20027;-90
2022/10/28 06:40:52;;;;;;;15.43;4.25;;;15.90;99.90;;;;;;5087150;28;20025;-90
2022/10/28 06:43:18;;;;;;;10.98;5.82;;;16.00;99.90;;;;;;5069543;28;20021;-89
2022/10/28 06:45:45;;;;;;;15.75;5.10;;;15.90;99.90;;;;;;5086147;28;20044;-89
2022/10/28 06:48:12;;;;;;;18.30;7.93;;;15.90;99.90;;;;;;5086043;28;20059;-89
2022/10/28 06:50:37;;;;;;;18.40;6.28;;;15.90;99.90;;;;;;5087432;28;20025;-88
2022/10/28 06:53:04;;;;;;;9.57;6.32;;;;;;;;;;5087059;28;20052;-89
2022/10/28 06:55:30;;;;;;;16.13;5.90;;;;;;;;;;5083461;28;20027;-89
2022/10/28 06:58:01;;;;;;;13.80;5.82;;;15.90;99.90;;;;;;5086074;28;20103;-89
2022/10/28 07:00:28;;;;;;;10.70;4.57;;;15.90;99.90;;;;;;5087157;28;20036;-89
2022/10/28 07:02:55;;;;;;;12.23;6.60;;;15.90;99.90;;;;;;5085855;28;20048;-89
2022/10/28 07:05:22;;;;;;;11.20;6.38;;;15.90;99.90;;;;;;5069170;28;20100;-89
2022/10/28 07:07:48;;;;;;;20.17;6.68;;;15.90;99.90;;;;;;5069096;28;20028;-89
2022/10/28 07:10:14;;;;;;;11.82;5.85;;;15.90;99.90;;;;;;5070126;28;20044;-89
2022/10/28 07:12:40;;;;;;;11.85;5.18;;;16.00;99.90;;;;;;5049259;28;20025;-89
2022/10/28 07:15:06;;;;;;;14.23;5.78;;;16.00;99.90;;;;;;5049082;28;20039;-90
2022/10/28 07:17:32;;;;;;;12.98;6.15;;;16.00;99.90;;;;;;5065719;28;20036;-89
2022/10/28 07:19:58;;;;;;;12.80;5.38;;;16.00;99.90;;;;;;5048899;28;20056;-89
2022/10/28 07:22:24;;;;;;;10.15;6.00;;;16.00;99.90;;;;;;5048974;28;20040;-89
2022/10/28 07:24:50;;;;;;;5.95;4.82;;;16.00;99.90;;;;;;5077347;28;20498;-90
2022/10/28 07:27:15;;;;;;;19.50;7.03;;;16.00;99.90;;;;;;5068003;28;20029;-89
2022/10/28 07:29:41;;;;;;;9.75;6.20;;;15.90;99.90;;;;;;5051848;28;20029;-90
2022/10/28 07:32:07;;;;;;;14.45;7.45;;;16.00;99.90;;;;;;5068467;28;20092;-90
2022/10/28 07:34:33;;;;;;;7.88;4.60;;;16.00;99.90;;;;;;5085283;28;20081;-89
2022/10/28 07:36:59;;;;;;;8.07;5.22;;;;;;;;;;5051933;28;20036;-89
2022/10/28 07:39:25;;;;;;;20.80;6.70;;;16.00;99.90;;;;;;5085236;28;20062;-89
2022/10/28 07:41:50;;;;;;;11.77;6.13;;;16.00;99.90;;;;;;5071253;28;20045;-89
2022/10/28 07:44:16;;;;;;;16.23;6.28;;;16.00;99.90;;;;;;5048644;28;20411;-89
2022/10/28 07:46:42;;;;;;;20.30;7.22;;;16.00;99.90;;;;;;5065084;28;20104;-89
2022/10/28 07:49:09;;;;;;;16.42;7.13;;;16.00;99.90;;;;;;5066363;28;20029;-90
2022/10/28 07:51:34;;;;;;;13.95;7.43;;;16.00;99.90;;;;;;5064890;28;20052;-89
2022/10/28 07:54:00;;;;;;;31.50;7.20;;;16.10;99.90;;;;;;5050640;28;20033;-89
2022/10/28 07:56:26;;;;;;;11.70;6.30;;;15.70;99.90;;;;;;5060754;28;20472;-90
2022/10/28 07:58:52;;;;;;;9.40;7.53;;;16.10;99.90;;;;;;5068326;28;20033;-90
2022/10/28 08:01:20;;;;;;;19.00;7.43;;;16.10;99.90;;;;;;5085044;28;20095;-89
2022/10/28 08:03:48;;;;;;;24.83;7.40;;;16.10;99.90;;;;;;5068089;28;20109;-88
2022/10/28 08:06:18;;;;;;;17.65;6.43;;;16.10;99.90;;;;;;5068099;28;20052;-90
2022/10/28 08:08:45;;;;;;;17.92;6.38;;;16.10;99.90;;;;;;5084929;28;20131;-90
2022/10/28 08:11:17;;;;;;;10.75;4.43;;;16.20;99.90;;;;;;5049939;28;20017;-90
2022/10/28 08:13:44;;;;;;;16.10;5.88;;;16.20;99.90;;;;;;5065996;28;20029;-89
2022/10/28 08:16:10;;;;;;;13.30;5.07;;;16.30;99.90;;;;;;5048109;28;20021;-89
2022/10/28 08:18:37;;;;;;;12.98;5.35;;;16.30;99.90;;;;;;5064784;28;20032;-88
2022/10/28 08:21:05;;;;;;;14.45;5.72;;;16.30;99.90;;;;;;5064970;28;20047;-90
2022/10/28 08:23:31;;;;;;;18.15;5.57;;;16.30;99.90;;;;;;5047972;28;20043;-90
2022/10/28 08:25:57;;;;;;;9.38;5.28;;;16.40;99.90;;;;;;5082345;28;20044;-89
2022/10/28 08:28:23;;;;;;;11.63;5.55;;;16.40;99.90;;;;;;5068035;28;20086;-90
2022/10/28 08:30:49;;;;;;;11.20;5.60;;;16.40;99.90;;;;;;5084587;28;20026;-90
2022/10/28 08:33:16;;;;;;;9.30;4.68;;;16.40;99.90;;;;;;5068419;28;20084;-90
2022/10/28 08:35:42;;;;;;;7.85;3.90;;;16.40;99.90;;;;;;5067956;28;20021;-89
2022/10/28 08:38:08;;;;;;;8.35;4.93;;;16.40;99.90;;;;;;5084545;28;20096;-90
2022/10/28 08:40:34;;;;;;;9.70;4.72;;;;;;;;;;5082933;28;20021;-90
2022/10/28 08:43:13;;;;;;;7.95;4.40;;;16.50;99.90;;;;;;5084237;28;20024;-90
2022/10/28 08:45:54;;;;;;;12.90;4.65;;;16.50;99.90;;;;;;5084523;28;20029;-89
2022/10/28 08:48:20;;;;;;;18.42;5.55;;;16.60;99.90;;;;;;5067712;28;20036;-90
2022/10/28 08:50:52;;;;;;;8.38;4.53;;;16.60;99.90;;;;;;5085559;28;20032;-89
2022/10/28 08:53:28;;;;;;;13.63;5.93;;;16.60;99.90;;;;;;5084716;28;20029;-90
2022/10/28 08:56:06;;;;;;;14.40;4.82;;;16.60;99.90;;;;;;5084557;28;20032;-89
2022/10/28 08:58:35;;;;;;;9.38;4.60;;;16.70;99.90;;;;;;5082702;28;20021;-89
2022/10/28 09:01:01;;;;;;;6.70;4.57;;;16.70;99.90;;;;;;5051927;28;20025;-89
2022/10/28 09:03:31;;;;;;;6.05;3.38;;;16.80;99.90;;;;;;5061317;28;20092;-90
2022/10/28 09:06:03;;;;;;;8.98;3.75;;;16.80;99.90;;;;;;5064937;28;20033;-90
2022/10/28 09:08:41;;;;;;;6.65;4.93;;;16.80;99.90;;;;;;5064757;28;20029;-90
2022/10/28 09:11:09;;;;;;;11.02;5.65;;;16.80;99.90;;;;;;5047902;28;20029;-89
2022/10/28 09:14:05;;;;;;;13.13;5.00;;;16.80;99.90;;;;;;5064732;28;20038;-90
2022/10/28 09:16:54;;;;;;;9.65;4.85;;;16.90;99.90;;;;;;5073297;28;20043;-89
2022/10/28 09:19:26;;;;;;;5.22;3.60;;;16.90;99.90;;;;;;5088333;28;20078;-90
2022/10/28 09:22:09;;;;;;;5.95;4.47;;;16.90;99.90;;;;;;5089065;28;20044;-90
2022/10/28 09:24:41;;;;;;;8.02;4.35;;;16.90;99.90;;;;;;5087871;28;20024;-89
2022/10/28 09:27:22;;;;;;;4.80;4.18;;;17.00;99.90;;;;;;5089156;28;20450;-90
2022/10/28 09:29:57;;;;;;;8.57;5.40;;;17.10;99.90;;;;;;5081969;28;20037;-90
2022/10/28 09:32:42;;;;;;;8.40;5.03;;;17.10;99.90;;;;;;5069704;28;20035;-90
2022/10/28 09:35:14;;;;;;;11.20;3.90;;;17.20;99.90;;;;;;5067484;28;20096;-89
2022/10/28 09:37:47;;;;;;;10.77;4.40;;;17.30;99.90;;;;;;5067613;28;20084;-89
2022/10/28 09:40:20;;;;;;;14.85;4.53;;;17.40;99.90;;;;;;5067542;28;20025;-89
2022/10/28 09:43:13;;;;;;;12.20;4.65;;;17.40;99.90;;;;;;5067671;28;20021;-89
2022/10/28 09:45:44;;;;;;;8.05;3.80;;;17.40;99.90;;;;;;5082489;28;20032;-91
2022/10/28 09:48:21;;;;;;;5.70;4.15;;;17.50;99.90;;;;;;5087761;28;20052;-91
2022/10/28 09:50:53;;;;;;;10.90;4.63;;;17.50;99.90;;;;;;5087488;28;20110;-90
2022/10/28 09:53:40;;;;;;;8.25;4.43;;;17.60;99.90;;;;;;5087521;28;20036;-90
2022/10/28 09:56:06;;;;;;;8.82;4.68;;;17.70;99.90;;;;;;5087378;28;20067;-90
2022/10/28 09:58:33;;;;;;;12.25;4.47;;;17.70;99.90;;;;;;5087266;28;20021;-90
2022/10/28 10:01:00;;;;;;;11.15;4.55;;;17.70;99.90;;;;;;5051036;28;20388;-90
2022/10/28 10:03:26;;;;;;;10.45;5.10;;;17.70;99.90;;;;;;5068125;28;20060;-90
2022/10/28 10:05:57;;;;;;;8.77;4.72;;;17.70;99.90;;;;;;5067413;28;20036;-90
2022/10/28 10:08:23;;;;;;;8.00;4.28;;;;;;;;;;5067081;28;20074;-89
2022/10/28 10:10:55;;;;;;;4.97;4.18;;;17.80;99.90;;;;;;5068774;28;20369;-90
2022/10/28 10:13:26;;;;;;;10.50;5.18;;;17.90;99.90;;;;;;5068038;28;20048;-90
2022/10/28 10:15:56;;;;;;;9.15;5.43;;;18.00;99.90;;;;;;5046087;28;20097;-90
2022/10/28 10:18:26;;;;;;;9.63;4.75;;;18.10;99.90;;;;;;5063423;28;20029;-90
2022/10/28 10:20:54;;;;;;;11.80;3.85;;;18.10;99.90;;;;;;5046941;28;20076;-90
2022/10/28 10:23:21;;;;;;;7.30;5.55;;;18.10;99.90;;;;;;5048059;28;20030;-90
2022/10/28 10:25:54;;;;;;;9.40;3.08;;;18.10;99.90;;;;;;5046802;28;20030;-90
2022/10/28 10:28:20;;;;;;;4.18;3.78;;;18.10;99.90;;;;;;5050608;28;20089;-90
2022/10/28 10:30:52;;;;;;;3.85;2.95;;;18.00;99.90;;;;;;5069940;28;20020;-90
2022/10/28 10:33:27;;;;;;;12.45;5.00;;;18.00;99.90;;;;;;5088032;28;20036;-91
2022/10/28 10:36:01;;;;;;;9.85;3.85;;;18.10;99.90;;;;;;5069798;28;20032;-90
2022/10/28 10:38:28;;;;;;;4.13;3.72;;;18.10;99.90;;;;;;5086472;28;20020;-90
2022/10/28 10:40:55;;;;;;;10.77;4.07;;;18.20;99.90;;;;;;5086464;28;20036;-89
2022/10/28 10:43:33;;;;;;;9.38;3.72;;;18.30;99.90;;;;;;5071737;28;20028;-90
2022/10/28 10:46:03;;;;;;;13.60;5.05;;;18.40;99.90;;;;;;5069936;28;20043;-90
2022/10/28 10:48:35;;;;;;;11.80;4.63;;;18.50;99.90;;;;;;5087543;28;20025;-90
2022/10/28 10:51:23;;;;;;;4.32;3.83;;;18.50;99.90;;;;;;5086530;28;20505;-90
2022/10/28 10:53:54;;;;;;;6.90;3.05;;;18.50;99.90;;;;;;5086133;28;20024;-90
2022/10/28 10:56:29;;;;;;;6.70;4.57;;;18.60;99.90;;;;;;5086338;28;20142;-90
2022/10/28 10:59:00;;;;;;;11.20;4.63;;;18.60;99.90;;;;;;5086157;28;20032;-90
2022/10/28 11:01:31;;;;;;;8.30;3.00;;;18.60;99.90;;;;;;5071085;28;20043;-90
2022/10/28 11:04:00;;;;;;;6.82;3.88;;;18.60;99.90;;;;;;5049189;28;20053;-90
2022/10/28 11:06:30;;;;;;;7.50;3.95;;;18.60;99.90;;;;;;5066005;28;20029;-90
2022/10/28 11:09:02;;;;;;;10.35;3.05;;;18.60;99.90;;;;;;5065938;28;20025;-90
2022/10/28 11:11:39;;;;;;;13.93;4.05;;;18.70;99.90;;;;;;5082585;28;20029;-90
2022/10/28 11:14:07;;;;;;;9.07;4.07;;;18.70;99.90;;;;;;5049412;28;20066;-90
2022/10/28 11:16:54;;;;;;;7.30;4.38;;;18.70;99.90;;;;;;5083176;28;20024;-90
2022/10/28 11:19:20;;;;;;;5.72;3.25;;;18.70;99.90;;;;;;5085694;28;20033;-89
2022/10/28 11:22:16;;;;;;;5.53;4.25;;;18.70;99.90;;;;;;5085978;28;20092;-90
2022/10/28 11:25:19;;;;;;;11.30;4.03;;;18.70;99.90;;;;;;5069178;28;20028;-90
2022/10/28 11:27:58;;;;;;;20.42;4.22;;;18.70;99.90;;;;;;5086730;28;20075;-90
2022/10/28 11:31:13;;;;;;;6.63;4.03;;;18.80;99.90;;;;;;5086805;28;20044;-90
2022/10/28 11:34:11;;;;;;;9.48;4.05;;;18.80;99.90;;;;;;5011081;28;20048;-90
2022/10/28 11:36:52;;;;;;;9.10;4.05;;;18.80;99.90;;;;;;5045456;28;20031;-90
2022/10/28 11:39:36;;;;;;;9.27;3.22;;;18.80;99.90;;;;;;5045535;28;20029;-91
2022/10/28 11:42:19;;;;;;;9.65;4.20;;;18.80;99.90;;;;;;5061995;28;20029;-90
2022/10/28 11:45:12;;;;;;;6.38;4.05;;;18.80;99.90;;;;;;5045621;28;20084;-90
2022/10/28 11:47:57;;;;;;;13.68;3.90;;;18.80;99.90;;;;;;5055982;28;20037;-90
2022/10/28 11:50:31;;;;;;;4.88;3.75;;;18.90;99.90;;;;;;5051168;28;20033;-90
2022/10/28 11:53:31;;;;;;;8.48;3.65;;;18.90;99.90;;;;;;5083628;28;20032;-91
2022/10/28 11:56:22;;;;;;;8.25;4.13;;;18.90;99.90;;;;;;5071994;28;20048;-91
2022/10/28 11:59:07;;;;;;;8.48;4.03;;;18.90;99.90;;;;;;5064983;28;20033;-90
2022/10/28 12:02:04;;;;;;;8.40;3.25;;;18.90;99.90;;;;;;5047982;28;20033;-90
2022/10/28 12:04:57;;;;;;;6.53;3.92;;;19.00;99.90;;;;;;5064780;28;20045;-90
2022/10/28 12:07:36;;;;;;;11.63;4.47;;;19.00;99.90;;;;;;5048537;28;20071;-89
2022/10/28 12:10:26;;;;;;;8.07;2.63;;;19.00;99.90;;;;;;5065053;28;20042;-90
2022/10/28 12:13:04;;;;;;;6.53;3.40;;;19.00;99.90;;;;;;5048227;28;20129;-90
2022/10/28 12:15:53;;;;;;;5.78;3.58;;;19.00;99.90;;;;;;5064766;28;20033;-90
2022/10/28 12:18:53;;;;;;;12.32;4.43;;;19.00;99.90;;;;;;5048173;28;20031;-90
2022/10/28 12:21:31;;;;;;;4.50;3.47;;;19.00;99.90;;;;;;5083154;28;20532;-90
2022/10/28 12:23:58;;;;;;;10.65;3.67;;;19.10;99.90;;;;;;5087290;28;20056;-90
2022/10/28 12:26:38;;;;;;;10.30;5.03;;;19.10;99.90;;;;;;5088026;28;20056;-90
2022/10/28 12:29:16;;;;;;;5.47;2.85;;;19.10;99.90;;;;;;5048410;28;20024;-90
2022/10/28 12:31:46;;;;;;;9.23;3.20;;;19.10;99.90;;;;;;5061573;28;20025;-90
2022/10/28 12:34:17;;;;;;;7.78;4.68;;;19.20;99.90;;;;;;5044826;28;20034;-90
2022/10/28 12:36:51;;;;;;;13.02;4.10;;;19.30;99.90;;;;;;5061392;28;20067;-90
2022/10/28 12:39:32;;;;;;;8.73;4.30;;;19.30;99.90;;;;;;5062809;28;20052;-90
2022/10/28 12:42:24;;;;;;;9.25;4.13;;;19.40;99.90;;;;;;5066561;28;20032;-90
2022/10/28 12:44:55;;;;;;;12.65;3.60;;;19.40;99.90;;;;;;5068840;28;20040;-90
2022/10/28 12:47:50;;;;;;;9.30;3.65;;;19.50;99.90;;;;;;5068530;28;20032;-89
2022/10/28 12:50:27;;;;;;;10.25;4.22;;;19.50;99.90;;;;;;5069733;28;20029;-89
2022/10/28 12:53:00;;;;;;;3.83;3.28;;;19.50;99.90;;;;;;5068566;28;20053;-90
2022/10/28 12:55:56;;;;;;;9.02;4.65;;;19.40;99.90;;;;;;5068623;28;20059;-90
2022/10/28 12:58:55;;;;;;;12.75;4.82;;;19.40;99.90;;;;;;5070466;28;20033;-90
2022/10/28 13:01:25;;;;;;;6.03;3.35;;;19.30;99.90;;;;;;5048387;28;20520;-90
2022/10/28 13:03:51;;;;;;;10.23;3.50;;;19.30;99.90;;;;;;5047863;28;20053;-90
2022/10/28 13:06:45;;;;;;;9.20;5.35;;;19.30;99.90;;;;;;5031928;28;20029;-89
2022/10/28 13:09:52;;;;;;;11.73;3.92;;;19.30;99.90;;;;;;5049523;28;20025;-90
2022/10/28 13:12:46;;;;;;;8.45;4.28;;;19.30;99.90;;;;;;5064502;28;20092;-90
2022/10/28 13:15:33;;;;;;;9.30;3.33;;;19.30;99.90;;;;;;5087964;28;20044;-89
2022/10/28 13:18:47;;;;;;;9.30;4.18;;;19.30;99.90;;;;;;5087844;28;20039;-90
2022/10/28 13:21:35;;;;;;;6.07;3.55;;;19.30;99.90;;;;;;5079362;28;20094;-89